Time;durP1;ratioP1;P1;durP2;ratioP2;P2;SDS_P1;SDS_P2;PMS_P1;PMS_P2;Temp;Humidity;BMP_temperature;BMP_pressure;BME280_temperature;BME280_humidity;BME280_pressure;Samples;Min_cycle;Max_cycle;Signal;HPM_P1;HPM_P2
2021/10/04 00:01:55;;;;;;;16.48;4.97;;;;;;;;;;5093851;28;20054;-61
2021/10/04 00:04:21;;;;;;;13.23;4.63;;;;;;;;;;5093770;28;20102;-61
2021/10/04 00:06:47;;;;;;;13.60;4.65;;;;;;;;;;5075250;28;20016;-59
2021/10/04 00:09:13;;;;;;;16.67;5.10;;;;;;;;;;5075135;28;20375;-60
2021/10/04 00:11:40;;;;;;;13.05;4.45;;;;;;;;;;5075567;28;20016;-59
2021/10/04 00:14:06;;;;;;;13.90;5.13;;;;;;;;;;5075401;28;20016;-60
2021/10/04 00:16:32;;;;;;;14.82;5.07;;;;;;;;;;5093558;28;20070;-59
2021/10/04 00:18:58;;;;;;;13.70;4.40;;;;;;;;;;5093201;28;20027;-59
2021/10/04 00:21:24;;;;;;;13.32;4.43;;;;;;;;;;5093839;28;20027;-61
2021/10/04 00:23:50;;;;;;;14.80;4.53;;;;;;;;;;5093778;28;20464;-56
2021/10/04 00:26:16;;;;;;;14.88;5.00;;;;;;;;;;5075457;28;20028;-59
2021/10/04 00:28:42;;;;;;;11.27;4.10;;;;;;;;;;5074786;28;20028;-62
2021/10/04 00:31:08;;;;;;;13.88;4.50;;;;;;;;;;5075450;28;20035;-58
2021/10/04 00:33:34;;;;;;;14.90;4.35;;;;;;;;;;5074952;28;20027;-55
2021/10/04 00:36:00;;;;;;;12.27;4.35;;;;;;;;;;5093017;28;20462;-61
2021/10/04 00:38:26;;;;;;;15.10;4.80;;;;;;;;;;5075000;28;20024;-59
2021/10/04 00:40:52;;;;;;;14.57;4.50;;;;;;;;;;5092987;28;20024;-61
2021/10/04 00:43:21;;;;;;;18.85;4.13;;;;;;;;;;5074848;28;20039;-60
2021/10/04 00:45:47;;;;;;;13.35;4.18;;;;;;;;;;5093060;28;20024;-59
2021/10/04 00:48:12;;;;;;;13.48;4.43;;;;;;;;;;5074668;28;20036;-61
2021/10/04 00:50:39;;;;;;;12.73;4.22;;;;;;;;;;5092789;28;20076;-60
2021/10/04 00:53:05;;;;;;;11.95;3.60;;;;;;;;;;5074626;28;20039;-60
2021/10/04 00:55:31;;;;;;;11.55;3.88;;;;;;;;;;5074706;28;20110;-60
2021/10/04 00:57:57;;;;;;;19.42;4.57;;;;;;;;;;5092714;28;20365;-59
2021/10/04 01:00:24;;;;;;;9.82;4.05;;;;;;;;;;5092445;28;20020;-59
2021/10/04 01:02:51;;;;;;;12.93;4.15;;;;;;;;;;5074321;28;20028;-59
2021/10/04 01:05:17;;;;;;;13.30;3.90;;;;;;;;;;5092382;28;20020;-61
2021/10/04 01:07:43;;;;;;;12.38;4.00;;;;;;;;;;5074270;28;20016;-55
2021/10/04 01:10:10;;;;;;;12.55;3.85;;;;;;;;;;5074027;28;20410;-60
2021/10/04 01:12:38;;;;;;;11.80;4.30;;;;;;;;;;5092535;28;20028;-58
2021/10/04 01:15:05;;;;;;;11.00;3.80;;;;;;;;;;5073959;28;20016;-60
2021/10/04 01:17:31;;;;;;;14.77;4.43;;;;;;;;;;5073935;28;20028;-60
2021/10/04 01:19:57;;;;;;;13.95;4.22;;;;;;;;;;5092025;28;20499;-59
2021/10/04 01:22:23;;;;;;;12.30;4.00;;;;;;;;;;5074205;28;20024;-59
2021/10/04 01:24:49;;;;;;;11.20;3.80;;;;;;;;;;5074294;28;20032;-58
2021/10/04 01:27:15;;;;;;;11.13;3.90;;;;;;;;;;5074272;28;20024;-57
2021/10/04 01:29:41;;;;;;;11.85;3.90;;;;;;;;;;5073675;28;20067;-58
2021/10/04 01:32:07;;;;;;;9.63;3.42;;;;;;;;;;5074232;28;20081;-59
2021/10/04 01:34:33;;;;;;;11.68;3.70;;;;;;;;;;5074348;28;20036;-59
2021/10/04 01:37:00;;;;;;;14.02;3.90;;;;;;;;;;5073897;28;20024;-59
2021/10/04 01:39:26;;;;;;;11.82;4.00;;;;;;;;;;5073633;28;20028;-59
2021/10/04 01:41:52;;;;;;;11.63;3.80;;;;;;;;;;5092135;28;20052;-60
2021/10/04 01:44:18;;;;;;;11.90;3.80;;;;;;;;;;5074601;28;20059;-57
2021/10/04 01:46:44;;;;;;;11.13;3.85;;;;;;;;;;5092193;28;20103;-59
2021/10/04 01:49:10;;;;;;;11.43;3.58;;;;;;;;;;5074023;28;20112;-59
2021/10/04 01:51:36;;;;;;;12.80;4.00;;;;;;;;;;5074154;28;20482;-59
2021/10/04 01:54:02;;;;;;;12.15;3.92;;;;;;;;;;5092195;28;20361;-60
2021/10/04 01:56:28;;;;;;;11.90;3.72;;;;;;;;;;5073864;28;20081;-61
2021/10/04 01:58:54;;;;;;;12.60;4.95;;;;;;;;;;5073327;28;20036;-59
2021/10/04 02:01:20;;;;;;;38.97;25.05;;;;;;;;;;5073773;28;20031;-58
2021/10/04 02:03:46;;;;;;;13.05;5.13;;;;;;;;;;5073781;28;20032;-60
2021/10/04 02:06:12;;;;;;;15.85;6.40;;;;;;;;;;5091884;28;20028;-59
2021/10/04 02:08:39;;;;;;;19.45;7.10;;;;;;;;;;5091941;28;20391;-57
2021/10/04 02:11:04;;;;;;;33.08;21.00;;;;;;;;;;5091977;28;20021;-58
2021/10/04 02:13:31;;;;;;;28.65;15.90;;;;;;;;;;5074157;28;20021;-59
2021/10/04 02:15:56;;;;;;;16.00;6.28;;;;;;;;;;5073683;28;20020;-62
2021/10/04 02:18:22;;;;;;;27.80;14.68;;;;;;;;;;5091717;28;20092;-59
2021/10/04 02:20:49;;;;;;;13.02;4.30;;;;;;;;;;5091702;28;20031;-59
2021/10/04 02:23:15;;;;;;;13.32;4.13;;;;;;;;;;5091708;28;20024;-59
2021/10/04 02:25:42;;;;;;;15.88;6.10;;;;;;;;;;5073576;28;20050;-56
2021/10/04 02:28:09;;;;;;;10.98;4.10;;;;;;;;;;5074912;28;20055;-58
2021/10/04 02:30:36;;;;;;;23.95;12.00;;;;;;;;;;5077438;28;20451;-59
2021/10/04 02:33:02;;;;;;;15.30;5.20;;;;;;;;;;5077380;28;20396;-60
2021/10/04 02:35:28;;;;;;;13.30;4.38;;;;;;;;;;5095567;28;20028;-61
2021/10/04 02:37:54;;;;;;;15.48;5.78;;;;;;;;;;5095482;28;20039;-60
2021/10/04 02:40:21;;;;;;;14.00;4.65;;;;;;;;;;5076943;28;20024;-59
2021/10/04 02:42:47;;;;;;;14.00;4.15;;;;;;;;;;5095176;28;20476;-62
2021/10/04 02:45:15;;;;;;;12.85;4.40;;;;;;;;;;5095577;28;20032;-61
2021/10/04 02:47:42;;;;;;;13.30;4.17;;;;;;;;;;5095376;28;20020;-61
2021/10/04 02:50:13;;;;;;;17.10;4.97;;;;;;;;;;5094852;28;20345;-59
2021/10/04 02:52:39;;;;;;;12.63;4.10;;;;;;;;;;5077191;28;20031;-59
2021/10/04 02:55:05;;;;;;;14.57;4.43;;;;;;;;;;5095156;28;20642;-59
2021/10/04 02:57:31;;;;;;;16.23;5.35;;;;;;;;;;5076758;28;20115;-61
2021/10/04 02:59:57;;;;;;;11.52;4.32;;;;;;;;;;5094647;28;20560;-59
2021/10/04 03:02:24;;;;;;;13.05;4.28;;;;;;;;;;5076826;28;20076;-59
2021/10/04 03:04:50;;;;;;;11.80;3.97;;;;;;;;;;5076502;28;20070;-59
2021/10/04 03:07:16;;;;;;;12.40;4.20;;;;;;;;;;5094780;28;20129;-61
2021/10/04 03:09:42;;;;;;;12.00;4.22;;;;;;;;;;5076493;28;20027;-62
2021/10/04 03:12:08;;;;;;;12.80;4.20;;;;;;;;;;5076511;28;20028;-60
2021/10/04 03:14:34;;;;;;;12.32;4.07;;;;;;;;;;5076817;28;20365;-61
2021/10/04 03:17:01;;;;;;;14.23;4.15;;;;;;;;;;5076705;28;20447;-61
2021/10/04 03:19:27;;;;;;;12.80;4.20;;;;;;;;;;5094569;28;20028;-61
2021/10/04 03:21:53;;;;;;;15.07;4.20;;;;;;;;;;5094480;28;20029;-60
2021/10/04 03:24:19;;;;;;;11.73;4.03;;;;;;;;;;5094380;28;20031;-62
2021/10/04 03:26:45;;;;;;;12.52;4.30;;;;;;;;;;5094352;28;20032;-60
2021/10/04 03:29:11;;;;;;;15.82;4.85;;;;;;;;;;5075756;28;20028;-59
2021/10/04 03:31:38;;;;;;;11.02;4.40;;;;;;;;;;5094298;28;20020;-61
2021/10/04 03:34:04;;;;;;;13.38;4.32;;;;;;;;;;5075755;28;20035;-61
2021/10/04 03:36:30;;;;;;;16.10;4.45;;;;;;;;;;5093769;28;20433;-59
2021/10/04 03:38:56;;;;;;;13.60;4.72;;;;;;;;;;5093601;28;20028;-60
2021/10/04 03:41:23;;;;;;;11.20;4.00;;;;;;;;;;5075595;28;20020;-61
2021/10/04 03:43:49;;;;;;;12.88;4.20;;;;;;;;;;5093805;28;20051;-59
2021/10/04 03:46:15;;;;;;;12.90;4.45;;;;;;;;;;5075787;28;20020;-60
2021/10/04 03:48:41;;;;;;;15.25;4.38;;;;;;;;;;5075276;28;20090;-59
2021/10/04 03:51:07;;;;;;;12.98;4.25;;;;;;;;;;5075900;28;20016;-60
2021/10/04 03:53:33;;;;;;;12.07;4.22;;;;;;;;;;5094029;28;20027;-60
2021/10/04 03:55:59;;;;;;;13.90;4.10;;;;;;;;;;5093848;28;20089;-58
2021/10/04 03:58:25;;;;;;;15.35;4.20;;;;;;;;;;5075573;28;20028;-60
2021/10/04 04:00:51;;;;;;;12.63;4.22;;;;;;;;;;5075524;28;20070;-61
2021/10/04 04:03:17;;;;;;;10.55;4.00;;;;;;;;;;5075502;28;20024;-58
2021/10/04 04:05:43;;;;;;;11.23;4.15;;;;;;;;;;5093444;28;20024;-60
2021/10/04 04:08:09;;;;;;;12.30;4.07;;;;;;;;;;5075250;28;20032;-60
2021/10/04 04:10:35;;;;;;;11.52;3.70;;;;;;;;;;5093128;28;20025;-60
2021/10/04 04:13:02;;;;;;;16.60;4.05;;;;;;;;;;5093234;28;20145;-60
2021/10/04 04:15:28;;;;;;;13.75;4.00;;;;;;;;;;5075330;28;20054;-61
2021/10/04 04:17:54;;;;;;;14.95;4.97;;;;;;;;;;5094061;28;20024;-59
2021/10/04 04:20:20;;;;;;;13.07;3.95;;;;;;;;;;5075064;28;20101;-61
2021/10/04 04:22:46;;;;;;;14.60;4.88;;;;;;;;;;5093684;28;20028;-57
2021/10/04 04:25:13;;;;;;;10.63;3.80;;;;;;;;;;5093308;28;20023;-60
2021/10/04 04:27:40;;;;;;;11.15;4.30;;;;;;;;;;5093177;28;20357;-58
2021/10/04 04:30:06;;;;;;;12.30;3.88;;;;;;;;;;5074635;28;20472;-60
2021/10/04 04:32:32;;;;;;;12.02;4.35;;;;;;;;;;5092997;28;20020;-60
2021/10/04 04:34:58;;;;;;;11.48;4.03;;;;;;;;;;5093231;28;20025;-61
2021/10/04 04:37:24;;;;;;;13.88;4.63;;;;;;;;;;5092511;28;20024;-60
2021/10/04 04:39:51;;;;;;;12.48;4.28;;;;;;;;;;5074455;28;20537;-60
2021/10/04 04:42:17;;;;;;;12.00;4.40;;;;;;;;;;5092801;28;20439;-60
2021/10/04 04:44:43;;;;;;;12.63;4.43;;;;;;;;;;5074606;28;20495;-60
2021/10/04 04:47:09;;;;;;;11.65;4.30;;;;;;;;;;5074270;28;20028;-59
2021/10/04 04:49:35;;;;;;;17.25;5.15;;;;;;;;;;5092533;28;20020;-60
2021/10/04 04:52:00;;;;;;;13.07;4.53;;;;;;;;;;5073359;28;20115;-61
2021/10/04 04:54:27;;;;;;;13.10;4.18;;;;;;;;;;5092733;28;20024;-59
2021/10/04 04:56:59;;;;;;;13.43;4.65;;;;;;;;;;5092539;28;20020;-60
2021/10/04 04:59:25;;;;;;;15.27;5.03;;;;;;;;;;5092125;28;20103;-58
2021/10/04 05:01:51;;;;;;;12.52;4.47;;;;;;;;;;5074203;28;20024;-60
2021/10/04 05:04:17;;;;;;;13.23;4.70;;;;;;;;;;5092592;28;20032;-59
2021/10/04 05:06:43;;;;;;;15.95;4.88;;;;;;;;;;5073924;28;20024;-59
2021/10/04 05:09:10;;;;;;;12.40;4.57;;;;;;;;;;5073856;28;20024;-61
2021/10/04 05:11:35;;;;;;;18.25;5.55;;;;;;;;;;5073893;28;20020;-60
2021/10/04 05:14:02;;;;;;;13.05;4.57;;;;;;;;;;5073895;28;20499;-58
2021/10/04 05:16:28;;;;;;;12.90;4.60;;;;;;;;;;5092033;28;20396;-60
2021/10/04 05:18:54;;;;;;;13.73;4.97;;;;;;;;;;5073792;28;20446;-60
2021/10/04 05:21:20;;;;;;;13.50;4.88;;;;;;;;;;5091757;28;20081;-60
2021/10/04 05:23:46;;;;;;;12.07;4.57;;;;;;;;;;5073971;28;20024;-59
2021/10/04 05:26:12;;;;;;;12.00;4.82;;;;;;;;;;5073725;28;20055;-60
2021/10/04 05:28:38;;;;;;;10.70;4.28;;;;;;;;;;5091090;28;20154;-59
2021/10/04 05:31:04;;;;;;;14.30;5.20;;;;;;;;;;5111231;23;20177;-62
2021/10/04 05:33:30;;;;;;;10.93;4.32;;;;;;;;;;5090379;28;20436;-65
2021/10/04 05:35:56;;;;;;;12.23;4.30;;;;;;;;;;5090478;28;20035;-64
2021/10/04 05:38:22;;;;;;;11.38;4.43;;;;;;;;;;5072469;28;20517;-63
2021/10/04 05:40:49;;;;;;;12.82;4.55;;;;;;;;;;5090230;28;20502;-63
2021/10/04 05:43:15;;;;;;;15.98;5.35;;;;;;;;;;5090186;28;20039;-64
2021/10/04 05:45:41;;;;;;;13.20;4.10;;;;;;;;;;5072191;28;20372;-63
2021/10/04 05:48:07;;;;;;;16.42;4.97;;;;;;;;;;5072308;28;20027;-65
2021/10/04 05:50:33;;;;;;;11.68;4.65;;;;;;;;;;5090340;28;20036;-63
2021/10/04 05:52:59;;;;;;;11.50;4.05;;;;;;;;;;5071848;28;20068;-64
2021/10/04 05:55:25;;;;;;;12.02;4.88;;;;;;;;;;5090402;28;20066;-65
2021/10/04 05:57:51;;;;;;;13.95;4.50;;;;;;;;;;5072371;28;20051;-65
2021/10/04 06:00:17;;;;;;;13.48;4.35;;;;;;;;;;5090316;28;20095;-65
2021/10/04 06:02:43;;;;;;;11.95;4.57;;;;;;;;;;5074815;28;20028;-61
2021/10/04 06:05:09;;;;;;;15.85;5.70;;;;;;;;;;5094800;28;20027;-64
2021/10/04 06:07:36;;;;;;;10.27;4.10;;;;;;;;;;5094632;28;20028;-65
2021/10/04 06:10:02;;;;;;;11.90;4.50;;;;;;;;;;5075603;28;20051;-64
2021/10/04 06:12:28;;;;;;;14.93;4.85;;;;;;;;;;5076176;28;20028;-64
2021/10/04 06:14:55;;;;;;;11.18;4.30;;;;;;;;;;5094130;28;20089;-64
2021/10/04 06:17:21;;;;;;;11.30;4.72;;;;;;;;;;5094241;28;20028;-63
2021/10/04 06:19:47;;;;;;;14.75;5.07;;;;;;;;;;5075387;28;20035;-63
2021/10/04 06:22:13;;;;;;;12.40;4.60;;;;;;;;;;5075919;28;20024;-66
2021/10/04 06:24:39;;;;;;;12.50;4.20;;;;;;;;;;5076110;28;20028;-65
2021/10/04 06:27:05;;;;;;;12.90;4.43;;;;;;;;;;5094136;28;20030;-66
2021/10/04 06:29:31;;;;;;;12.52;4.30;;;;;;;;;;5093596;28;20025;-64
2021/10/04 06:31:57;;;;;;;12.77;4.78;;;;;;;;;;5075333;28;20376;-64
2021/10/04 06:34:23;;;;;;;14.80;5.55;;;;;;;;;;5075196;28;20043;-65
2021/10/04 06:36:49;;;;;;;15.52;4.53;;;;;;;;;;5093759;28;20089;-65
2021/10/04 06:39:15;;;;;;;12.00;4.47;;;;;;;;;;5075501;28;20024;-64
2021/10/04 06:41:41;;;;;;;14.10;4.30;;;;;;;;;;5093517;28;20107;-64
2021/10/04 06:44:08;;;;;;;12.45;4.75;;;;;;;;;;5093663;28;20055;-65
2021/10/04 06:46:35;;;;;;;15.07;4.65;;;;;;;;;;5093493;28;20421;-65
2021/10/04 06:49:01;;;;;;;18.42;5.07;;;;;;;;;;5093711;28;20016;-65
2021/10/04 06:51:27;;;;;;;12.05;4.40;;;;;;;;;;5093695;28;20072;-65
2021/10/04 06:53:53;;;;;;;13.80;4.65;;;;;;;;;;5075557;28;20119;-65
2021/10/04 06:56:19;;;;;;;11.70;4.70;;;;;;;;;;5093625;28;20130;-65
2021/10/04 06:58:45;;;;;;;14.48;4.65;;;;;;;;;;5075400;28;20020;-66
2021/10/04 07:01:11;;;;;;;14.82;4.82;;;;;;;;;;5093534;28;20028;-66
2021/10/04 07:03:37;;;;;;;17.05;4.50;;;;;;;;;;5075071;28;20098;-66
2021/10/04 07:06:03;;;;;;;14.20;4.68;;;;;;;;;;5093193;28;20067;-65
2021/10/04 07:08:29;;;;;;;14.38;4.32;;;;;;;;;;5092987;28;20122;-66
2021/10/04 07:10:55;;;;;;;16.58;4.82;;;;;;;;;;5093074;28;20059;-64
2021/10/04 07:13:21;;;;;;;15.20;4.30;;;;;;;;;;5092278;28;20020;-66
2021/10/04 07:15:48;;;;;;;11.88;4.32;;;;;;;;;;5075070;28;20047;-66
2021/10/04 07:18:14;;;;;;;12.80;4.70;;;;;;;;;;5092821;28;20588;-66
2021/10/04 07:20:40;;;;;;;14.48;4.68;;;;;;;;;;5093349;28;20049;-66
2021/10/04 07:23:06;;;;;;;11.38;4.47;;;;;;;;;;5093179;28;20031;-66
2021/10/04 07:25:33;;;;;;;11.35;4.72;;;;;;;;;;5074927;28;20023;-66
2021/10/04 07:28:00;;;;;;;16.30;5.10;;;;;;;;;;5093396;28;20112;-68
2021/10/04 07:30:26;;;;;;;10.05;4.68;;;;;;;;;;5074489;28;20062;-68
2021/10/04 07:32:53;;;;;;;14.10;4.65;;;;;;;;;;5074940;28;20180;-68
2021/10/04 07:35:20;;;;;;;12.15;4.60;;;;;;;;;;5093016;28;20069;-68
2021/10/04 07:37:46;;;;;;;11.83;4.40;;;;;;;;;;5092802;28;20016;-67
2021/10/04 07:40:13;;;;;;;12.70;4.85;;;;;;;;;;5074897;28;20099;-68
2021/10/04 07:42:41;;;;;;;13.48;4.60;;;;;;;;;;5092896;28;20020;-68
2021/10/04 07:45:07;;;;;;;13.37;4.63;;;;;;;;;;5092928;28;20484;-68
2021/10/04 07:47:33;;;;;;;16.13;5.00;;;;;;;;;;5092713;28;20495;-65
2021/10/04 07:49:59;;;;;;;16.02;4.80;;;;;;;;;;5092376;28;20028;-66
2021/10/04 07:52:25;;;;;;;15.20;4.95;;;;;;;;;;5074718;28;20024;-66
2021/10/04 07:54:51;;;;;;;14.00;4.88;;;;;;;;;;5074120;28;20016;-66
2021/10/04 07:57:17;;;;;;;15.98;5.47;;;;;;;;;;5074264;28;20031;-65
2021/10/04 07:59:44;;;;;;;18.17;5.32;;;;;;;;;;5092109;28;20027;-65
2021/10/04 08:02:10;;;;;;;16.08;5.15;;;;;;;;;;5092289;28;20038;-65
2021/10/04 08:04:36;;;;;;;15.63;5.65;;;;;;;;;;5074372;28;20367;-65
2021/10/04 08:07:03;;;;;;;13.88;5.47;;;;;;;;;;5073992;28;20030;-66
2021/10/04 08:09:29;;;;;;;16.33;5.90;;;;;;;;;;5073750;28;20600;-65
2021/10/04 08:11:55;;;;;;;13.88;5.55;;;;;;;;;;5073848;28;20024;-65
2021/10/04 08:14:21;;;;;;;12.40;5.28;;;;;;;;;;5091884;28;20107;-64
2021/10/04 08:16:47;;;;;;;13.85;5.10;;;;;;;;;;5073813;28;20024;-65
2021/10/04 08:19:13;;;;;;;12.15;4.90;;;;;;;;;;5091763;28;20016;-65
2021/10/04 08:21:40;;;;;;;16.23;5.72;;;;;;;;;;5091960;28;20079;-64
2021/10/04 08:24:06;;;;;;;12.68;4.95;;;;;;;;;;5091798;28;20505;-64
2021/10/04 08:26:32;;;;;;;17.08;5.55;;;;;;;;;;5090635;28;20042;-64
2021/10/04 08:28:58;;;;;;;12.82;5.25;;;;;;;;;;5073268;28;20016;-65
2021/10/04 08:31:29;;;;;;;14.40;4.80;;;;;;;;;;5091595;28;20141;-66
2021/10/04 08:33:57;;;;;;;15.70;4.90;;;;;;;;;;5091954;28;20016;-65
2021/10/04 08:36:23;;;;;;;20.58;6.38;;;;;;;;;;5073343;28;20024;-65
2021/10/04 08:38:49;;;;;;;17.73;5.10;;;;;;;;;;5091284;28;20430;-65
2021/10/04 08:41:17;;;;;;;22.90;6.10;;;;;;;;;;5091568;28;20028;-66
2021/10/04 08:43:46;;;;;;;17.10;5.55;;;;;;;;;;5091667;28;20081;-64
2021/10/04 08:46:12;;;;;;;15.13;5.40;;;;;;;;;;5091236;28;20063;-65
2021/10/04 08:48:38;;;;;;;16.48;6.18;;;;;;;;;;5073251;28;20032;-65
2021/10/04 08:51:04;;;;;;;14.10;6.70;;;;;;;;;;5073462;28;20110;-65
2021/10/04 08:53:30;;;;;;;15.43;5.88;;;;;;;;;;5073111;28;20100;-66
2021/10/04 08:55:56;;;;;;;15.68;5.60;;;;;;;;;;5091526;28;20051;-66
2021/10/04 08:58:23;;;;;;;16.02;5.53;;;;;;;;;;5072914;28;20024;-65
2021/10/04 09:00:48;;;;;;;18.83;5.65;;;;;;;;;;5091049;28;20077;-65
2021/10/04 09:03:14;;;;;;;14.38;5.82;;;;;;;;;;5072976;28;20123;-66
2021/10/04 09:05:44;;;;;;;14.25;5.50;;;;;;;;;;5072790;28;20031;-65
2021/10/04 09:08:12;;;;;;;15.00;6.00;;;;;;;;;;5090943;28;20031;-65
2021/10/04 09:10:39;;;;;;;21.98;6.40;;;;;;;;;;5090708;28;20060;-66
2021/10/04 09:13:06;;;;;;;25.75;7.35;;;;;;;;;;5091234;28;20043;-64
2021/10/04 09:15:37;;;;;;;14.40;6.00;;;;;;;;;;5091166;28;20024;-65
2021/10/04 09:18:03;;;;;;;18.83;6.40;;;;;;;;;;5072875;28;20058;-64
2021/10/04 09:20:47;;;;;;;16.00;5.80;;;;;;;;;;5090467;28;20055;-65
2021/10/04 09:23:32;;;;;;;22.25;6.32;;;;;;;;;;5072289;28;20066;-64
2021/10/04 09:25:59;;;;;;;18.42;6.32;;;;;;;;;;5073067;28;20028;-66
2021/10/04 09:28:32;;;;;;;12.18;6.00;;;;;;;;;;5090743;28;20106;-65
2021/10/04 09:31:17;;;;;;;15.05;6.30;;;;;;;;;;5090816;28;20526;-65
2021/10/04 09:34:01;;;;;;;15.95;6.20;;;;;;;;;;5090684;28;20019;-66
2021/10/04 09:36:32;;;;;;;19.77;6.80;;;;;;;;;;5072013;28;20031;-63
2021/10/04 09:39:17;;;;;;;18.98;6.90;;;;;;;;;;5090469;28;20076;-65
2021/10/04 09:41:55;;;;;;;17.90;7.25;;;;;;;;;;5072440;28;20024;-64
2021/10/04 09:44:21;;;;;;;23.27;7.35;;;;;;;;;;5072444;28;20040;-63
2021/10/04 09:46:48;;;;;;;27.00;7.53;;;;;;;;;;5090354;28;20132;-64
2021/10/04 09:49:14;;;;;;;18.75;7.00;;;;;;;;;;5090006;28;20115;-65
2021/10/04 09:51:53;;;;;;;17.23;6.60;;;;;;;;;;5090487;28;20031;-65
2021/10/04 09:54:19;;;;;;;;;;;;;;;;;;5073125;28;20024;-66
2021/10/04 09:56:45;;;;;;;12.32;6.43;;;;;;;;;;5072435;28;20363;-64
2021/10/04 09:59:11;;;;;;;13.38;6.32;;;;;;;;;;5090357;28;20480;-65
2021/10/04 10:01:38;;;;;;;16.63;6.60;;;;;;;;;;5072246;28;20028;-64
2021/10/04 10:04:04;;;;;;;13.75;6.10;;;;;;;;;;5090545;28;20460;-65
2021/10/04 10:06:33;;;;;;;13.88;6.60;;;;;;;;;;5090190;28;20474;-66
2021/10/04 10:09:00;;;;;;;17.38;6.57;;;;;;;;;;5090235;28;20368;-66
2021/10/04 10:11:31;;;;;;;19.33;6.68;;;;;;;;;;5072402;28;20107;-65
2021/10/04 10:13:57;;;;;;;22.27;6.88;;;;;;;;;;5092558;28;20039;-65
2021/10/04 10:16:35;;;;;;;18.30;6.53;;;;;;;;;;5098270;28;20035;-67
2021/10/04 10:19:09;;;;;;;16.67;5.87;;;;;;;;;;5094576;28;20059;-66
2021/10/04 10:21:36;;;;;;;14.48;5.93;;;;;;;;;;5076968;28;20630;-67
2021/10/04 10:24:09;;;;;;;17.35;6.53;;;;;;;;;;5096835;28;20115;-64
2021/10/04 10:26:41;;;;;;;17.55;7.18;;;;;;;;;;5078573;28;20044;-65
2021/10/04 10:29:12;;;;;;;24.23;7.78;;;;;;;;;;5096912;28;20020;-66
2021/10/04 10:31:51;;;;;;;17.83;7.30;;;;;;;;;;5078652;28;20307;-65
2021/10/04 10:34:29;;;;;;;17.33;8.10;;;;;;;;;;5096908;28;20024;-65
2021/10/04 10:37:02;;;;;;;17.25;7.15;;;;;;;;;;5078304;28;20027;-65
2021/10/04 10:39:32;;;;;;;14.35;7.20;;;;;;;;;;5079062;28;20091;-65
2021/10/04 10:42:13;;;;;;;17.75;6.75;;;;;;;;;;5079269;28;20020;-64
2021/10/04 10:44:55;;;;;;;14.63;7.10;;;;;;;;;;5098626;28;20058;-65
2021/10/04 10:47:36;;;;;;;18.52;6.88;;;;;;;;;;5097468;28;20101;-64
2021/10/04 10:50:10;;;;;;;15.07;6.88;;;;;;;;;;5098841;28;20020;-65
2021/10/04 10:52:37;;;;;;;18.98;6.57;;;;;;;;;;5101210;28;20525;-65
2021/10/04 10:55:23;;;;;;;16.27;6.97;;;15.80;99.90;;;;;;5099702;28;20046;-65
2021/10/04 10:57:48;;;;;;;16.05;8.02;;;17.70;99.90;;;;;;5095624;28;20071;-65
2021/10/04 11:00:19;;;;;;;16.88;7.72;;;;;;;;;;5093319;28;20063;-66
2021/10/04 11:02:48;;;;;;;14.95;8.02;;;;;;;;;;5075218;28;20119;-66
2021/10/04 11:05:33;;;;;;;17.02;8.48;;;;;;;;;;5075265;28;20050;-65
2021/10/04 11:07:59;;;;;;;19.27;9.05;;;;;;;;;;5075245;28;20060;-65
2021/10/04 11:10:25;;;;;;;14.38;8.50;;;;;;;;;;5074698;28;20063;-65
2021/10/04 11:13:11;;;;;;;14.70;8.18;;;18.20;99.90;;;;;;5075313;28;20028;-65
2021/10/04 11:15:39;;;;;;;16.98;8.02;;;;;;;;;;5075071;28;20024;-65
2021/10/04 11:18:06;;;;;;;17.30;7.88;;;;;;;;;;5074971;28;20052;-65
2021/10/04 11:20:32;;;;;;;16.85;8.70;;;;;;;;;;5093062;28;20402;-65
2021/10/04 11:23:14;;;;;;;17.02;8.50;;;;;;;;;;5074695;28;20060;-67
2021/10/04 11:25:41;;;;;;;14.90;7.80;;;;;;;;;;5072646;28;20392;-66
2021/10/04 11:28:07;;;;;;;17.63;8.35;;;;;;;;;;5074529;28;20028;-65
2021/10/04 11:30:53;;;;;;;17.33;8.35;;;;;;;;;;5106728;22;20059;-60
2021/10/04 11:33:19;;;;;;;16.73;8.95;;;;;;;;;;5075575;28;20502;-63
2021/10/04 11:36:03;;;;;;;15.35;8.95;;;;;;;;;;5075983;28;20039;-63
2021/10/04 11:38:30;;;;;;;14.50;8.50;;;;;;;;;;5093731;28;20067;-61
2021/10/04 11:40:58;;;;;;;17.08;8.60;;;;;;;;;;5093886;28;20111;-59
2021/10/04 11:43:25;;;;;;;17.27;8.68;;;;;;;;;;5075782;28;20566;-60
2021/10/04 11:45:52;;;;;;;15.15;8.48;;;;;;;;;;5075553;28;20593;-62
2021/10/04 11:48:31;;;;;;;16.27;8.98;;;;;;;;;;5093616;28;20028;-63
2021/10/04 11:50:58;;;;;;;16.27;9.15;;;;;;;;;;5093275;28;20047;-62
2021/10/04 11:53:24;;;;;;;14.93;9.23;;;;;;;;;;5075672;28;20020;-63
2021/10/04 11:55:57;;;;;;;18.40;9.75;;;;;;;;;;5093160;28;20028;-64
2021/10/04 11:58:23;;;;;;;15.32;10.13;;;;;;;;;;5092916;28;20020;-61
2021/10/04 12:00:49;;;;;;;15.57;10.00;;;;;;;;;;5074708;28;20028;-63
2021/10/04 12:03:25;;;;;;;15.82;10.00;;;;;;;;;;5075237;28;20549;-63
2021/10/04 12:05:53;;;;;;;20.02;10.48;;;17.60;99.90;;;;;;5074918;28;20155;-63
2021/10/04 12:08:19;;;;;;;19.20;10.60;;;20.70;99.90;;;;;;5074462;28;20036;-63
2021/10/04 12:10:45;;;;;;;17.13;10.75;;;;;;;;;;5074763;28;20039;-63
2021/10/04 12:13:21;;;;;;;14.98;9.55;;;;;;;;;;5074849;28;20024;-63
2021/10/04 12:15:50;;;;;;;18.75;10.35;;;20.60;99.90;;;;;;5074632;28;20113;-61
2021/10/04 12:18:17;;;;;;;16.05;10.35;;;;;;;;;;5074517;28;20073;-63
2021/10/04 12:20:43;;;;;;;16.60;10.60;;;;;;;;;;5074622;28;20496;-63
2021/10/04 12:23:18;;;;;;;16.80;10.60;;;;;;;;;;5074481;28;20032;-61
2021/10/04 12:25:44;;;;;;;16.63;10.65;;;;;;;;;;5092760;28;20054;-59
2021/10/04 12:28:11;;;;;;;15.45;10.75;;;;;;;;;;5092468;28;20020;-59
2021/10/04 12:30:41;;;;;;;17.63;10.48;;;;;;;;;;5074358;28;20138;-61
2021/10/04 12:33:07;;;;;;;15.90;10.70;;;;;;;;;;5092903;28;20414;-62
2021/10/04 12:35:33;;;;;;;16.80;10.50;;;;;;;;;;5074998;28;20183;-64
2021/10/04 12:38:03;;;;;;;18.40;10.68;;;;;;;;;;5076054;28;20055;-63
2021/10/04 12:40:33;;;;;;;17.52;10.55;;;;;;;;;;5092580;28;20027;-60
2021/10/04 12:43:14;;;;;;;15.40;10.43;;;;;;;;;;5093131;28;20441;-61
2021/10/04 12:45:40;;;;;;;17.58;10.75;;;;;;;;;;5074130;28;20460;-61
2021/10/04 12:48:08;;;;;;;16.15;10.70;;;;;;;;;;5074215;28;20016;-60
2021/10/04 12:50:39;;;;;;;15.82;10.70;;;;;;;;;;5074571;28;20069;-61
2021/10/04 12:53:21;;;;;;;16.58;10.38;;;;;;;;;;5093254;28;20024;-61
2021/10/04 12:56:06;;;;;;;16.60;10.40;;;;;;;;;;5092527;28;20026;-62
2021/10/04 12:58:37;;;;;;;15.38;10.93;;;;;;;;;;5074165;28;20111;-63
2021/10/04 13:01:13;;;;;;;17.55;11.40;;;;;;;;;;5074031;28;20030;-62
2021/10/04 13:03:51;;;;;;;16.83;10.80;;;;;;;;;;5092069;28;20028;-59
2021/10/04 13:06:17;;;;;;;15.43;10.80;;;;;;;;;;5073773;28;20027;-59
2021/10/04 13:08:43;;;;;;;16.80;11.13;;;;;;;;;;5092482;28;20032;-63
2021/10/04 13:11:09;;;;;;;17.00;10.60;;;;;;;;;;5073387;28;20032;-62
2021/10/04 13:13:35;;;;;;;16.15;10.68;;;;;;;;;;5092070;28;20020;-62
2021/10/04 13:16:09;;;;;;;17.83;10.80;;;;;;;;;;5073216;28;20028;-62
2021/10/04 13:18:35;;;;;;;16.80;10.60;;;;;;;;;;5091349;28;20020;-59
2021/10/04 13:21:01;;;;;;;18.15;9.98;;;;;;;;;;5073394;28;20023;-61
2021/10/04 13:23:27;;;;;;;15.73;10.20;;;;;;;;;;5072741;28;20123;-60
2021/10/04 13:25:54;;;;;;;16.75;10.43;;;;;;;;;;5073448;28;20032;-59
2021/10/04 13:28:21;;;;;;;15.43;10.27;;;;;;;;;;5091702;28;20031;-62
2021/10/04 18:17:05;;;;;;;17.02;6.95;;;;;;;;;;5109868;27;20319;-57
2021/10/04 18:19:31;;;;;;;14.05;6.30;;;;;;;;;;5108345;28;20051;-59
2021/10/04 18:21:57;;;;;;;14.38;6.60;;;;;;;;;;5109687;28;20024;-56
2021/10/04 18:24:23;;;;;;;15.60;7.97;;;;;;;;;;5108492;28;20027;-58
2021/10/04 18:26:49;;;;;;;18.20;8.20;;;;;;;;;;5102147;22;20045;-56
2021/10/04 18:29:17;;;;;;;14.70;7.05;;;;;;;;;;5066977;28;20043;-56
2021/10/04 18:31:43;;;;;;;17.20;9.07;;;;;;;;;;5068628;28;20056;-53
2021/10/04 18:34:09;;;;;;;17.20;7.63;;;;;;;;;;5068744;28;20032;-54
2021/10/04 18:36:37;;;;;;;15.60;7.63;;;;;;;;;;5062068;28;20071;-57
2021/10/04 18:39:04;;;;;;;16.17;8.10;;;;;;;;;;5057722;28;20017;-56
2021/10/04 18:41:30;;;;;;;15.57;7.28;;;;;;;;;;5062042;28;20043;-56
2021/10/04 18:43:56;;;;;;;15.57;7.43;;;;;;;;;;5048469;28;20021;-55
2021/10/04 18:46:22;;;;;;;14.20;7.20;;;;;;;;;;5048814;28;20040;-55
2021/10/04 18:48:48;;;;;;;14.85;7.72;;;;;;;;;;5046974;28;20025;-57
2021/10/04 18:51:15;;;;;;;15.68;7.97;;;;;;;;;;5049059;28;20536;-60
2021/10/04 18:53:41;;;;;;;17.13;8.10;;;;;;;;;;5049065;28;20032;-59
2021/10/04 18:56:08;;;;;;;15.95;7.68;;;;;;;;;;5048795;28;20493;-59
2021/10/04 18:58:34;;;;;;;15.02;7.97;;;;;;;;;;5049012;28;20623;-56
2021/10/04 19:01:01;;;;;;;15.75;8.65;;;;;;;;;;5047519;28;20544;-53
2021/10/04 19:03:27;;;;;;;16.20;8.50;;;;;;;;;;5047301;28;20129;-53
2021/10/04 19:05:53;;;;;;;18.92;9.25;;;;;;;;;;5047088;28;20040;-58
2021/10/04 19:08:19;;;;;;;14.88;7.82;;;;;;;;;;5046699;28;20103;-58
2021/10/04 19:10:45;;;;;;;16.02;7.40;;;;;;;;;;5046658;28;20398;-53
2021/10/04 19:13:11;;;;;;;17.88;8.32;;;;;;;;;;5048522;28;20043;-57
2021/10/04 19:15:37;;;;;;;17.67;8.68;;;;;;;;;;5046821;28;20067;-53